Time;durP1;ratioP1;P1;durP2;ratioP2;P2;SDS_P1;SDS_P2;PMS_P1;PMS_P2;Temp;Humidity;BMP_temperature;BMP_pressure;BME280_temperature;BME280_humidity;BME280_pressure;Samples;Min_cycle;Max_cycle;Signal;HPM_P1;HPM_P2
2023/10/08 00:01:43;;;;;;;0.65;0.60;;;16.90;99.90;;;;;;5032969;28;20051;-75
2023/10/08 00:04:10;;;;;;;0.00;0.00;;;16.80;99.90;;;;;;5051019;28;20045;-71
2023/10/08 00:06:37;;;;;;;0.52;0.43;;;16.50;99.90;;;;;;5045026;28;20114;-74
2023/10/08 00:09:08;;;;;;;0.10;0.10;;;16.30;99.90;;;;;;5061297;28;20488;-71
2023/10/08 00:11:40;;;;;;;0.10;0.10;;;16.00;99.90;;;;;;5052077;28;20040;-74
2023/10/08 00:14:10;;;;;;;0.20;0.20;;;15.80;99.90;;;;;;5035571;28;20405;-73
2023/10/08 00:16:38;;;;;;;0.38;0.32;;;15.60;99.90;;;;;;5046747;28;20060;-73
2023/10/08 00:19:08;;;;;;;0.00;0.00;;;15.40;99.90;;;;;;5067406;28;20056;-73
2023/10/08 00:21:35;;;;;;;0.13;0.13;;;15.30;99.90;;;;;;5056330;28;20046;-71
2023/10/08 00:24:05;;;;;;;0.05;0.05;;;15.20;99.90;;;;;;5063912;28;20041;-73
2023/10/08 00:26:31;;;;;;;0.10;0.10;;;15.00;99.90;;;;;;5038670;28;20056;-73
2023/10/08 00:29:06;;;;;;;0.00;0.00;;;14.90;99.90;;;;;;5069152;28;20135;-72
2023/10/08 00:31:37;;;;;;;0.00;0.00;;;14.80;99.90;;;;;;5045690;28;20070;-73
2023/10/08 00:34:08;;;;;;;0.10;0.10;;;14.70;99.90;;;;;;5051846;28;20036;-73
2023/10/08 00:36:34;;;;;;;0.17;0.10;;;14.70;99.90;;;;;;5043545;28;20049;-73
2023/10/08 00:39:00;;;;;;;0.00;0.00;;;14.60;99.90;;;;;;5077624;28;20041;-71
2023/10/08 00:41:32;;;;;;;0.10;0.10;;;14.50;99.90;;;;;;5034434;28;20044;-73
2023/10/08 00:43:59;;;;;;;0.57;0.15;;;14.50;99.90;;;;;;5080205;28;20044;-73
2023/10/08 00:46:42;;;;;;;0.10;0.10;;;14.40;99.90;;;;;;5040409;28;20363;-74
2023/10/08 00:49:38;;;;;;;0.30;0.30;;;14.30;99.90;;;;;;5040728;28;20048;-74
2023/10/08 00:54:55;;;;;;;0.63;0.10;;;14.30;99.90;;;;;;5067728;28;20520;-73
2023/10/08 00:57:25;;;;;;;0.00;0.00;;;14.20;99.90;;;;;;5055608;28;20028;-73
2023/10/08 00:59:53;;;;;;;0.20;0.20;;;14.20;99.90;;;;;;5043177;28;20068;-73
2023/10/08 01:02:28;;;;;;;0.15;0.15;;;14.10;99.90;;;;;;5048871;28;20041;-75
2023/10/08 01:04:55;;;;;;;0.20;0.20;;;14.10;99.90;;;;;;5046155;28;20052;-74
2023/10/08 01:07:23;;;;;;;0.00;0.00;;;14.00;99.90;;;;;;5046610;28;20056;-74
2023/10/08 01:09:56;;;;;;;0.00;0.00;;;14.00;99.90;;;;;;5063638;28;20488;-73
2023/10/08 01:12:39;;;;;;;0.00;0.00;;;13.90;99.90;;;;;;5039256;28;20369;-74
2023/10/08 01:15:23;;;;;;;0.00;0.00;;;13.90;99.90;;;;;;5057381;28;20106;-74
2023/10/08 01:17:57;;;;;;;0.00;0.00;;;13.90;99.90;;;;;;5039072;28;20048;-74
2023/10/08 01:20:33;;;;;;;0.10;0.10;;;13.90;99.90;;;;;;5030191;28;20041;-74
2023/10/08 01:23:09;;;;;;;0.28;0.20;;;13.80;99.90;;;;;;5043144;28;20037;-72
2023/10/08 01:28:26;;;;;;;0.00;0.00;;;13.80;99.90;;;;;;5031139;28;20052;-73
2023/10/08 01:31:00;;;;;;;0.10;0.10;;;13.80;99.90;;;;;;5046117;28;20407;-74
2023/10/08 01:33:29;;;;;;;1.85;0.10;;;13.70;99.90;;;;;;5063634;28;20056;-75
2023/10/08 01:36:01;;;;;;;0.00;0.00;;;13.70;99.90;;;;;;5065685;28;20037;-74
2023/10/08 01:38:28;;;;;;;0.00;0.00;;;13.70;99.90;;;;;;5029335;28;20132;-74
2023/10/08 01:40:53;;;;;;;0.00;0.00;;;13.60;99.90;;;;;;5062717;28;20056;-73
2023/10/08 01:43:20;;;;;;;0.00;0.00;;;13.60;99.90;;;;;;5050607;28;20460;-74
2023/10/08 01:45:51;;;;;;;0.00;0.00;;;13.60;99.90;;;;;;5042653;28;20407;-74
2023/10/08 01:48:20;;;;;;;0.00;0.00;;;13.60;99.90;;;;;;5042885;28;20036;-74
2023/10/08 01:50:47;;;;;;;0.00;0.00;;;13.60;99.90;;;;;;5047110;28;20045;-74
2023/10/08 01:53:15;;;;;;;0.45;0.20;;;13.60;99.90;;;;;;5061510;28;20108;-74
2023/10/08 01:55:51;;;;;;;0.00;0.00;;;13.60;99.90;;;;;;5058687;28;20430;-75
2023/10/08 01:58:18;;;;;;;0.00;0.00;;;13.50;99.90;;;;;;5041492;28;20041;-74
2023/10/08 02:00:48;;;;;;;0.00;0.00;;;13.50;99.90;;;;;;5058715;28;20033;-75
2023/10/08 02:03:18;;;;;;;0.00;0.00;;;13.50;99.90;;;;;;5041786;28;20059;-76
2023/10/08 02:05:46;;;;;;;0.00;0.00;;;13.50;99.90;;;;;;5059951;28;20045;-75
2023/10/08 02:08:13;;;;;;;0.00;0.00;;;13.50;99.90;;;;;;5078513;28;20131;-75
2023/10/08 02:10:40;;;;;;;0.00;0.00;;;13.50;99.90;;;;;;5064372;28;20051;-76
2023/10/08 02:13:08;;;;;;;0.08;0.08;;;13.50;99.90;;;;;;5024622;28;20056;-74
2023/10/08 02:15:34;;;;;;;0.00;0.00;;;13.50;99.90;;;;;;5062863;28;20412;-76
2023/10/08 02:18:00;;;;;;;0.00;0.00;;;13.50;99.90;;;;;;5063827;28;20124;-76
2023/10/08 02:20:27;;;;;;;0.00;0.00;;;13.50;99.90;;;;;;5040776;28;20056;-75
2023/10/08 02:22:53;;;;;;;0.00;0.00;;;13.50;99.90;;;;;;5036634;28;20137;-75
2023/10/08 02:25:19;;;;;;;0.10;0.10;;;13.50;99.90;;;;;;5029352;28;20040;-75
2023/10/08 02:27:45;;;;;;;0.10;0.10;;;13.50;99.90;;;;;;5074932;28;20440;-75
2023/10/08 02:30:12;;;;;;;0.25;0.25;;;13.40;99.90;;;;;;5048362;28;20094;-75
2023/10/08 02:32:42;;;;;;;0.00;0.00;;;13.50;99.90;;;;;;5042742;28;20049;-75
2023/10/08 02:35:11;;;;;;;0.05;0.05;;;13.40;99.90;;;;;;5035360;28;20124;-76
2023/10/08 02:37:39;;;;;;;0.00;0.00;;;13.40;99.90;;;;;;5046251;28;20075;-75
2023/10/08 02:40:27;;;;;;;0.00;0.00;;;13.40;99.90;;;;;;5047988;28;20037;-75
2023/10/08 02:42:58;;;;;;;0.00;0.00;;;13.40;99.90;;;;;;5040379;28;20041;-75
2023/10/08 02:45:27;;;;;;;0.38;0.10;;;13.40;99.90;;;;;;5067583;28;20037;-75
2023/10/08 02:47:57;;;;;;;0.10;0.10;;;13.40;99.90;;;;;;5057514;28;20042;-75
2023/10/08 02:50:22;;;;;;;0.10;0.10;;;13.40;99.90;;;;;;5040697;28;20496;-76
2023/10/08 02:52:51;;;;;;;0.00;0.00;;;13.40;99.90;;;;;;5047370;28;20138;-75
2023/10/08 02:55:28;;;;;;;0.00;0.00;;;13.40;99.90;;;;;;5042029;28;20050;-75
2023/10/08 02:57:56;;;;;;;0.00;0.00;;;13.40;99.90;;;;;;5029766;28;20049;-75
2023/10/08 03:00:29;;;;;;;0.00;0.00;;;13.40;99.90;;;;;;5036377;28;20115;-75
2023/10/08 03:03:01;;;;;;;0.00;0.00;;;13.40;99.90;;;;;;5052868;28;20040;-75
2023/10/08 03:05:30;;;;;;;0.00;0.00;;;13.40;99.90;;;;;;5037439;28;20439;-76
2023/10/08 03:07:57;;;;;;;0.00;0.00;;;13.40;99.90;;;;;;5046801;28;20052;-75
2023/10/08 03:10:31;;;;;;;0.00;0.00;;;13.40;99.90;;;;;;5069790;28;20048;-76
2023/10/08 03:13:04;;;;;;;0.00;0.00;;;13.40;99.90;;;;;;5043533;28;20041;-75
2023/10/08 03:15:30;;;;;;;0.00;0.00;;;13.40;99.90;;;;;;5053142;28;20403;-75
2023/10/08 03:18:08;;;;;;;0.00;0.00;;;13.30;99.90;;;;;;5050918;28;20441;-76
2023/10/08 03:20:45;;;;;;;0.00;0.00;;;13.40;99.90;;;;;;5049658;28;20048;-75
2023/10/08 03:23:22;;;;;;;0.00;0.00;;;13.30;99.90;;;;;;5069225;28;20036;-76
2023/10/08 03:25:56;;;;;;;0.03;0.03;;;13.30;99.90;;;;;;5057476;28;20063;-76
2023/10/08 03:28:24;;;;;;;0.10;0.10;;;13.30;99.90;;;;;;5036566;28;20041;-75
2023/10/08 03:30:51;;;;;;;0.20;0.20;;;13.30;99.90;;;;;;5064089;28;20049;-75
2023/10/08 03:33:22;;;;;;;0.00;0.00;;;13.30;99.90;;;;;;5050268;28;20033;-77
2023/10/08 03:35:52;;;;;;;0.00;0.00;;;13.20;99.90;;;;;;5045980;28;20146;-75
2023/10/08 03:38:28;;;;;;;2.20;0.43;;;13.20;99.90;;;;;;5043421;28;20401;-76
2023/10/08 03:40:58;;;;;;;0.10;0.10;;;13.20;99.90;;;;;;5035540;28;20073;-76
2023/10/08 03:43:33;;;;;;;0.00;0.00;;;13.20;99.90;;;;;;5060185;28;20041;-75
2023/10/08 03:46:05;;;;;;;0.00;0.00;;;13.20;99.90;;;;;;5050755;28;20519;-74
2023/10/08 03:48:37;;;;;;;0.00;0.00;;;13.20;99.90;;;;;;5048387;28;20483;-75
2023/10/08 03:51:11;;;;;;;0.00;0.00;;;13.20;99.90;;;;;;5048586;28;20311;-74
2023/10/08 03:53:57;;;;;;;0.00;0.00;;;13.10;99.90;;;;;;5063701;28;20311;-75
2023/10/08 03:56:24;;;;;;;0.00;0.00;;;13.20;99.90;;;;;;5046261;28;20435;-74
2023/10/08 03:58:53;;;;;;;0.08;0.08;;;13.10;99.90;;;;;;5049289;28;20120;-74
2023/10/08 04:01:20;;;;;;;0.00;0.00;;;13.10;99.90;;;;;;5051322;28;20080;-74
2023/10/08 04:06:22;;;;;;;0.00;0.00;;;13.10;99.90;;;;;;5059955;28;20045;-74
2023/10/08 04:11:35;;;;;;;0.00;0.00;;;13.10;99.90;;;;;;5048550;28;20230;-73
2023/10/08 04:14:04;;;;;;;0.00;0.00;;;13.10;99.90;;;;;;5048765;28;20049;-73
2023/10/08 04:16:36;;;;;;;0.00;0.00;;;13.00;99.90;;;;;;5041568;28;20033;-74
2023/10/08 04:19:03;;;;;;;0.00;0.00;;;13.00;99.90;;;;;;5044120;28;20048;-74
2023/10/08 04:21:29;;;;;;;0.17;0.10;;;13.10;99.90;;;;;;5041290;28;20518;-73
2023/10/08 04:23:57;;;;;;;0.00;0.00;;;13.00;99.90;;;;;;5052117;28;20503;-73
2023/10/08 04:26:23;;;;;;;0.10;0.10;;;13.00;99.90;;;;;;5037914;28;20075;-72
2023/10/08 04:29:06;;;;;;;0.00;0.00;;;13.00;99.90;;;;;;5048597;28;20044;-73
2023/10/08 04:31:43;;;;;;;0.05;0.05;;;13.00;99.90;;;;;;5037077;28;20045;-73
2023/10/08 04:34:15;;;;;;;0.10;0.10;;;13.00;99.90;;;;;;5072028;28;20430;-73
2023/10/08 04:36:45;;;;;;;0.00;0.00;;;13.00;99.90;;;;;;5070609;28;20041;-73
2023/10/08 04:39:21;;;;;;;0.00;0.00;;;13.00;99.90;;;;;;5047134;28;20088;-74
2023/10/08 04:41:48;;;;;;;0.10;0.10;;;13.00;99.90;;;;;;5031668;28;20382;-73
2023/10/08 04:44:14;;;;;;;0.00;0.00;;;13.00;99.90;;;;;;5063989;28;20049;-74
2023/10/08 04:46:46;;;;;;;0.00;0.00;;;13.00;99.90;;;;;;5038067;28;20105;-74
2023/10/08 04:49:27;;;;;;;;;;;13.00;99.90;;;;;;5028190;28;20049;-74
2023/10/08 04:52:05;;;;;;;0.10;0.10;;;13.00;99.90;;;;;;5051298;28;19921;-74
2023/10/08 04:54:31;;;;;;;0.10;0.10;;;13.00;99.90;;;;;;5059638;28;20435;-74
2023/10/08 04:57:00;;;;;;;0.28;0.10;;;13.00;99.90;;;;;;5031741;28;20041;-74
2023/10/08 04:59:33;;;;;;;0.00;0.00;;;13.00;99.90;;;;;;5065354;28;20036;-74
2023/10/08 05:07:27;;;;;;;0.00;0.00;;;12.90;99.90;;;;;;5063670;28;20056;-74
2023/10/08 05:10:10;;;;;;;0.10;0.10;;;12.90;99.90;;;;;;5064293;28;20040;-74
2023/10/08 05:12:50;;;;;;;0.65;0.40;;;12.90;99.90;;;;;;5047442;28;20306;-74
2023/10/08 05:29:01;;;;;;;0.00;0.00;;;12.90;99.90;;;;;;5041942;28;20439;-75
2023/10/08 05:31:52;;;;;;;0.05;0.00;;;12.90;99.90;;;;;;5029716;28;20053;-75
2023/10/08 05:34:23;;;;;;;0.08;0.08;;;12.90;99.90;;;;;;5048346;28;20454;-75
2023/10/08 05:45:14;;;;;;;0.10;0.10;;;12.90;99.90;;;;;;5058792;28;20084;-73
2023/10/08 05:53:01;;;;;;;0.70;0.32;;;12.90;99.90;;;;;;5045044;28;20148;-72
2023/10/08 05:55:47;;;;;;;0.10;0.10;;;12.80;99.90;;;;;;5022336;28;20504;-72
2023/10/08 06:01:40;;;;;;;0.40;0.40;;;12.80;99.90;;;;;;5037686;28;20087;-72
2023/10/08 06:03:32;;;;;;;0.30;0.28;;;12.80;99.90;;;;;;5038607;28;20110;-72
2023/10/08 06:09:04;;;;;;;2.00;0.20;;;12.80;99.90;;;;;;5043948;28;20514;-72
2023/10/08 06:12:29;;;;;;;1.02;0.17;;;12.80;99.90;;;;;;5078081;28;20045;-72
2023/10/08 06:14:42;;;;;;;0.20;0.20;;;12.80;99.90;;;;;;5040906;28;20048;-72
2023/10/08 06:17:23;;;;;;;0.13;0.13;;;12.80;99.90;;;;;;5043717;28;20037;-72
2023/10/08 06:19:52;;;;;;;0.38;0.20;;;12.80;99.90;;;;;;5040947;28;20557;-71
2023/10/08 06:22:18;;;;;;;0.05;0.05;;;12.80;99.90;;;;;;5029038;28;20065;-71
2023/10/08 06:24:44;;;;;;;0.10;0.10;;;12.80;99.90;;;;;;5055808;28;20048;-71
2023/10/08 06:27:16;;;;;;;0.10;0.10;;;12.80;99.90;;;;;;5041553;28;20049;-71
2023/10/08 06:29:44;;;;;;;0.05;0.05;;;12.80;99.90;;;;;;5045508;28;20519;-70
2023/10/08 06:32:11;;;;;;;0.00;0.00;;;12.80;99.90;;;;;;5058663;28;20072;-70
2023/10/08 06:34:40;;;;;;;0.10;0.10;;;12.80;99.90;;;;;;5047342;28;20075;-71
2023/10/08 06:37:06;;;;;;;0.10;0.10;;;12.80;99.90;;;;;;5044217;28;20087;-71
2023/10/08 06:39:47;;;;;;;0.10;0.10;;;12.80;99.90;;;;;;5064328;28;20036;-70
2023/10/08 06:42:17;;;;;;;0.10;0.10;;;12.80;99.90;;;;;;5061062;28;20495;-71
2023/10/08 06:44:45;;;;;;;0.20;0.20;;;12.80;99.90;;;;;;5034309;28;20044;-71
2023/10/08 06:47:13;;;;;;;0.10;0.10;;;12.80;99.90;;;;;;5046916;28;20044;-70
2023/10/08 06:49:43;;;;;;;0.13;0.13;;;12.80;99.90;;;;;;5039903;28;20041;-70
2023/10/08 06:52:13;;;;;;;0.10;0.10;;;12.80;99.90;;;;;;5029021;28;20091;-70
2023/10/08 06:54:39;;;;;;;0.10;0.10;;;12.80;99.90;;;;;;5062137;28;20128;-70
2023/10/08 06:57:07;;;;;;;0.03;0.03;;;12.80;99.90;;;;;;5037238;28;20442;-71
2023/10/08 06:59:32;;;;;;;0.00;0.00;;;12.80;99.90;;;;;;5028489;28;20406;-71
2023/10/08 07:01:58;;;;;;;0.17;0.05;;;12.80;99.90;;;;;;5054589;28;20053;-72
2023/10/08 07:04:24;;;;;;;0.00;0.00;;;12.80;99.90;;;;;;5041959;28;20380;-71
2023/10/08 07:06:50;;;;;;;0.10;0.10;;;12.90;99.90;;;;;;5056027;28;20091;-71
2023/10/08 07:09:22;;;;;;;0.10;0.10;;;12.90;99.90;;;;;;5036756;28;20045;-71
2023/10/08 07:11:55;;;;;;;0.20;0.20;;;13.00;99.90;;;;;;5044655;28;20053;-71
2023/10/08 07:14:26;;;;;;;0.10;0.10;;;13.00;99.90;;;;;;5059986;28;20499;-71
2023/10/08 07:16:58;;;;;;;0.00;0.00;;;13.00;99.90;;;;;;5033096;28;20060;-71
2023/10/08 07:19:37;;;;;;;0.20;0.15;;;13.00;99.90;;;;;;5074317;28;20059;-71
2023/10/08 07:22:06;;;;;;;0.10;0.10;;;13.00;99.90;;;;;;5036265;28;20118;-71
2023/10/08 07:24:34;;;;;;;0.20;0.20;;;13.10;99.90;;;;;;5055952;28;20052;-71
2023/10/08 07:27:05;;;;;;;0.00;0.00;;;13.10;99.90;;;;;;5037421;28;20056;-71
2023/10/08 07:29:32;;;;;;;0.05;0.05;;;13.10;99.90;;;;;;5053775;28;20162;-72
2023/10/08 07:32:09;;;;;;;0.03;0.03;;;13.10;99.90;;;;;;5045440;28;20599;-72
2023/10/08 07:34:38;;;;;;;0.05;0.05;;;13.20;99.90;;;;;;5044994;28;20099;-72
2023/10/08 07:37:11;;;;;;;0.10;0.10;;;13.30;99.90;;;;;;5046323;28;20131;-72
2023/10/08 07:39:45;;;;;;;0.35;0.35;;;13.30;99.90;;;;;;5034307;28;20065;-73
2023/10/08 07:42:10;;;;;;;0.00;0.00;;;13.30;99.90;;;;;;5047142;28;20042;-73
2023/10/08 07:44:38;;;;;;;0.00;0.00;;;13.30;99.90;;;;;;5042982;28;20052;-74
2023/10/08 07:47:09;;;;;;;0.00;0.00;;;13.30;99.90;;;;;;5054208;28;20123;-74
2023/10/08 07:49:35;;;;;;;0.00;0.00;;;13.30;99.90;;;;;;5063381;28;20119;-74
2023/10/08 07:52:04;;;;;;;0.45;0.20;;;13.30;99.90;;;;;;5043402;28;20060;-75
2023/10/08 07:54:34;;;;;;;0.10;0.10;;;13.40;99.90;;;;;;5058583;28;20045;-74
2023/10/08 07:57:08;;;;;;;0.00;0.00;;;13.40;99.90;;;;;;5036625;28;20045;-74
2023/10/08 07:59:41;;;;;;;0.00;0.00;;;13.40;99.90;;;;;;5083658;28;20124;-75
2023/10/08 08:02:11;;;;;;;0.10;0.10;;;13.50;99.90;;;;;;5049705;28;20057;-74
2023/10/08 08:04:40;;;;;;;0.20;0.20;;;13.50;99.90;;;;;;5043483;28;20051;-75
2023/10/08 08:07:06;;;;;;;0.20;0.20;;;13.50;99.90;;;;;;5046264;28;20382;-74
2023/10/08 08:09:37;;;;;;;0.05;0.05;;;13.50;99.90;;;;;;5064093;28;20045;-74
2023/10/08 08:12:07;;;;;;;0.20;0.10;;;13.60;99.90;;;;;;5045238;28;20045;-74
2023/10/08 08:14:33;;;;;;;0.10;0.10;;;13.60;99.90;;;;;;5046513;28;20036;-75
2023/10/08 08:17:13;;;;;;;0.10;0.10;;;13.70;99.90;;;;;;5046013;28;20402;-74
2023/10/08 08:19:43;;;;;;;0.22;0.22;;;13.70;99.90;;;;;;5061445;28;20796;-75
2023/10/08 08:22:14;;;;;;;0.15;0.15;;;13.70;99.90;;;;;;5044364;28;20041;-74
2023/10/08 08:24:44;;;;;;;0.20;0.20;;;13.80;99.90;;;;;;5040648;28;20041;-74
2023/10/08 08:27:23;;;;;;;0.00;0.00;;;13.90;99.90;;;;;;5051910;28;20052;-75
2023/10/08 08:29:55;;;;;;;0.10;0.10;;;13.90;99.90;;;;;;5047323;28;20039;-74
2023/10/08 08:32:23;;;;;;;0.43;0.20;;;13.90;99.90;;;;;;5048928;28;20045;-74
2023/10/08 08:34:50;;;;;;;0.00;0.00;;;14.00;99.90;;;;;;5075543;28;20041;-74
2023/10/08 08:37:22;;;;;;;0.00;0.00;;;14.00;99.90;;;;;;5058267;28;20037;-74
2023/10/08 08:39:48;;;;;;;0.00;0.00;;;14.00;99.90;;;;;;5037909;28;20040;-75
2023/10/08 08:42:18;;;;;;;0.15;0.13;;;14.00;99.90;;;;;;5040712;28;20140;-75
2023/10/08 08:44:50;;;;;;;0.05;0.05;;;14.00;99.90;;;;;;5046967;28;20049;-76
2023/10/08 08:47:17;;;;;;;0.00;0.00;;;14.10;99.90;;;;;;5068232;28;20128;-76
2023/10/08 08:49:47;;;;;;;0.00;0.00;;;14.20;99.90;;;;;;5050016;28;20128;-77
2023/10/08 08:52:14;;;;;;;0.10;0.00;;;14.20;99.90;;;;;;5044337;28;20409;-77
2023/10/08 08:54:42;;;;;;;0.52;0.52;;;14.30;99.90;;;;;;5042066;28;20045;-77
2023/10/08 08:57:13;;;;;;;0.10;0.10;;;14.30;99.90;;;;;;5049798;28;20050;-77
2023/10/08 08:59:53;;;;;;;0.10;0.10;;;14.30;99.90;;;;;;5057048;28;20477;-77
2023/10/08 09:02:19;;;;;;;0.10;0.10;;;14.40;99.90;;;;;;5056430;28;20128;-77
2023/10/08 09:04:45;;;;;;;0.00;0.00;;;14.50;99.90;;;;;;5028286;28;20152;-78
2023/10/08 09:07:12;;;;;;;0.10;0.10;;;14.50;99.90;;;;;;5040440;28;20087;-77
2023/10/08 09:09:39;;;;;;;0.00;0.00;;;14.50;99.90;;;;;;5037877;28;20041;-77
2023/10/08 09:12:05;;;;;;;0.05;0.05;;;14.50;99.90;;;;;;5046380;28;20049;-78
2023/10/08 09:14:32;;;;;;;0.00;0.00;;;14.60;99.90;;;;;;5063249;28;20124;-79
2023/10/08 09:16:59;;;;;;;0.00;0.00;;;14.70;99.90;;;;;;5058074;28;20036;-79
2023/10/08 09:19:26;;;;;;;0.00;0.00;;;14.70;99.90;;;;;;5054738;28;20206;-77
2023/10/08 09:22:08;;;;;;;1.15;0.57;;;14.80;99.90;;;;;;5047432;28;20036;-78
2023/10/08 09:24:36;;;;;;;0.73;0.10;;;14.80;99.90;;;;;;5038650;28;20088;-78
2023/10/08 09:27:03;;;;;;;0.00;0.00;;;14.80;99.90;;;;;;5063963;28;20041;-75
2023/10/08 09:29:29;;;;;;;0.25;0.25;;;14.90;99.90;;;;;;5040610;28;20045;-78
2023/10/08 09:31:59;;;;;;;0.00;0.00;;;15.00;99.90;;;;;;5086422;28;20045;-75
2023/10/08 09:34:30;;;;;;;0.13;0.13;;;15.00;99.90;;;;;;5061855;28;20632;-78
2023/10/08 09:36:59;;;;;;;0.00;0.00;;;15.00;99.90;;;;;;5047740;28;20045;-77
2023/10/08 09:39:26;;;;;;;0.00;0.00;;;15.00;99.90;;;;;;5031744;28;20356;-72
2023/10/08 09:41:58;;;;;;;0.70;0.70;;;15.00;99.90;;;;;;5041164;28;20039;-72
2023/10/08 09:44:25;;;;;;;0.00;0.00;;;15.00;99.90;;;;;;5073761;28;20033;-74
2023/10/08 09:47:01;;;;;;;0.10;0.10;;;15.00;99.90;;;;;;5042323;28;20044;-73
2023/10/08 09:49:44;;;;;;;0.00;0.00;;;15.00;99.90;;;;;;5029385;28;20045;-72
2023/10/08 12:36:13;;;;;;;0.17;0.17;;;16.90;99.90;;;;;;5134922;27;20758;-75
2023/10/08 12:38:43;;;;;;;0.32;0.32;;;17.00;99.90;;;;;;5101350;28;20078;-78
2023/10/08 12:41:13;;;;;;;0.32;0.17;;;17.00;99.90;;;;;;5097342;28;20047;-80
2023/10/08 12:43:45;;;;;;;0.00;0.00;;;17.00;99.90;;;;;;5091187;28;20035;-76
2023/10/08 12:46:18;;;;;;;0.20;0.20;;;17.10;99.90;;;;;;5110814;28;20047;-77
2023/10/08 12:48:47;;;;;;;0.43;0.40;;;17.00;99.90;;;;;;5106502;28;20469;-80
2023/10/08 12:51:14;;;;;;;0.08;0.08;;;17.00;99.90;;;;;;5133436;27;20042;-77
2023/10/08 12:53:41;;;;;;;0.15;0.10;;;17.10;99.90;;;;;;5106157;28;20151;-79
2023/10/08 12:56:14;;;;;;;0.55;0.10;;;17.00;99.90;;;;;;5107431;27;20038;-79
2023/10/08 12:58:43;;;;;;;0.10;0.10;;;17.00;99.90;;;;;;5125912;28;20046;-79
2023/10/08 13:01:09;;;;;;;0.10;0.10;;;16.90;99.90;;;;;;5104382;28;20558;-80
2023/10/08 13:03:41;;;;;;;0.00;0.00;;;16.90;99.90;;;;;;5109138;28;20110;-77
2023/10/08 13:06:14;;;;;;;0.05;0.05;;;16.80;99.90;;;;;;5096932;28;20450;-77
2023/10/08 13:08:40;;;;;;;0.10;0.10;;;16.80;99.90;;;;;;5127787;27;20520;-78
2023/10/08 13:11:06;;;;;;;0.00;0.00;;;16.80;99.90;;;;;;5090003;28;20119;-77
2023/10/08 13:13:33;;;;;;;0.00;0.00;;;16.80;99.90;;;;;;5095207;27;20169;-77
2023/10/08 13:16:02;;;;;;;0.10;0.10;;;16.90;99.90;;;;;;5120288;28;20115;-79
2023/10/08 13:18:29;;;;;;;0.25;0.25;;;16.90;99.90;;;;;;5134867;27;20044;-78
2023/10/08 13:20:55;;;;;;;0.20;0.20;;;16.80;99.90;;;;;;5123145;27;20083;-78
2023/10/08 13:23:23;;;;;;;0.20;0.20;;;16.80;99.90;;;;;;5108096;28;20031;-77
2023/10/08 13:25:54;;;;;;;0.32;0.20;;;16.70;99.90;;;;;;5138955;27;20070;-77
2023/10/08 13:28:23;;;;;;;0.10;0.10;;;16.60;99.90;;;;;;5101024;28;20101;-76
2023/10/08 13:30:52;;;;;;;0.10;0.10;;;16.50;99.90;;;;;;5104798;28;20039;-78
2023/10/08 13:33:24;;;;;;;0.10;0.10;;;16.50;99.90;;;;;;5100198;28;20066;-79
2023/10/08 13:35:51;;;;;;;0.10;0.10;;;16.50;99.90;;;;;;5087460;28;20028;-77
2023/10/08 13:38:20;;;;;;;0.20;0.20;;;16.50;99.90;;;;;;5087269;28;20096;-76
2023/10/08 13:41:02;;;;;;;0.10;0.10;;;16.50;99.90;;;;;;5068530;28;20040;-78
2023/10/08 13:43:35;;;;;;;0.00;0.00;;;16.50;99.90;;;;;;5095234;28;20527;-77
2023/10/08 13:46:08;;;;;;;0.10;0.10;;;16.60;99.90;;;;;;5085455;28;20083;-78
2023/10/08 13:48:35;;;;;;;0.10;0.10;;;16.60;99.90;;;;;;5093276;28;20110;-77
2023/10/08 13:51:05;;;;;;;0.20;0.20;;;16.60;99.90;;;;;;5089198;28;20056;-76
2023/10/08 13:53:32;;;;;;;0.43;0.43;;;16.70;99.90;;;;;;5089360;28;20616;-76
2023/10/08 13:56:01;;;;;;;0.28;0.13;;;16.70;99.90;;;;;;5091041;28;20074;-77
2023/10/08 13:58:31;;;;;;;0.10;0.10;;;16.60;99.90;;;;;;5102621;27;20061;-79
2023/10/08 14:01:00;;;;;;;0.10;0.10;;;16.60;99.90;;;;;;5090422;28;20084;-78
2023/10/08 14:03:33;;;;;;;0.13;0.10;;;16.60;99.90;;;;;;5080852;28;20444;-76
2023/10/08 14:06:03;;;;;;;;;;;16.60;99.90;;;;;;5082574;28;20034;-78
2023/10/08 14:08:29;;;;;;;0.00;0.00;;;16.60;99.90;;;;;;5094246;28;19975;-77
2023/10/08 14:11:02;;;;;;;0.10;0.10;;;16.60;99.90;;;;;;5089803;27;20043;-75
2023/10/08 14:13:29;;;;;;;0.05;0.05;;;16.60;99.90;;;;;;5088925;27;20102;-76
2023/10/08 14:15:55;;;;;;;0.00;0.00;;;16.50;99.90;;;;;;5104785;27;20040;-77
2023/10/08 14:18:40;;;;;;;0.00;0.00;;;16.50;99.90;;;;;;5086624;28;20046;-77
2023/10/08 14:21:12;;;;;;;0.00;0.00;;;16.50;99.90;;;;;;5086844;28;20051;-77
2023/10/08 14:23:39;;;;;;;0.00;0.00;;;16.50;99.90;;;;;;5117934;27;20047;-77
2023/10/08 14:26:08;;;;;;;1.02;0.38;;;16.50;99.90;;;;;;5080599;28;20034;-78
2023/10/08 14:28:40;;;;;;;0.10;0.10;;;16.40;99.90;;;;;;5086329;28;20485;-79
2023/10/08 14:31:15;;;;;;;0.00;0.00;;;16.40;99.90;;;;;;5119278;27;20038;-79
2023/10/08 14:33:43;;;;;;;0.10;0.10;;;16.40;99.90;;;;;;5087503;28;20114;-77
2023/10/08 14:44:23;;;;;;;0.10;0.10;;;16.40;99.90;;;;;;5085141;28;20039;-76
2023/10/08 14:46:50;;;;;;;0.00;0.00;;;16.40;99.90;;;;;;5084049;28;20516;-78
2023/10/08 14:49:16;;;;;;;1.15;0.98;;;16.30;99.90;;;;;;5102565;27;20417;-77
2023/10/08 14:51:43;;;;;;;0.10;0.10;;;16.30;99.90;;;;;;5107835;28;20035;-77
2023/10/08 14:54:08;;;;;;;0.10;0.10;;;16.30;99.90;;;;;;5092849;28;20100;-76
2023/10/08 14:56:36;;;;;;;0.10;0.10;;;16.30;99.90;;;;;;5091997;28;20393;-77
2023/10/08 14:59:03;;;;;;;0.10;0.10;;;16.20;99.90;;;;;;5089419;28;20177;-76
2023/10/08 15:01:32;;;;;;;0.22;0.10;;;16.20;99.90;;;;;;5091803;28;20075;-77
2023/10/08 15:03:59;;;;;;;0.03;0.03;;;16.20;99.90;;;;;;5087871;28;20036;-77
2023/10/08 15:06:26;;;;;;;0.20;0.20;;;16.10;99.90;;;;;;5090225;28;20032;-78
2023/10/08 15:08:52;;;;;;;0.10;0.10;;;16.10;99.90;;;;;;5123242;27;20046;-76
2023/10/08 15:11:17;;;;;;;0.10;0.10;;;16.10;99.90;;;;;;5095387;28;20043;-76
2023/10/08 15:13:45;;;;;;;0.38;0.38;;;16.00;99.90;;;;;;5084618;28;20401;-76
2023/10/08 15:16:13;;;;;;;0.00;0.00;;;16.00;99.90;;;;;;5103773;28;20438;-77
2023/10/08 15:18:42;;;;;;;1.55;0.90;;;16.00;99.90;;;;;;5092596;28;20047;-76
2023/10/08 15:21:09;;;;;;;0.47;0.47;;;16.00;99.90;;;;;;5104303;27;20047;-76
2023/10/08 15:23:35;;;;;;;0.10;0.10;;;16.00;99.90;;;;;;5122676;27;20450;-76
2023/10/08 15:26:01;;;;;;;0.10;0.10;;;16.00;99.90;;;;;;5069664;28;20040;-76
2023/10/08 15:28:27;;;;;;;0.22;0.22;;;15.90;99.90;;;;;;5093151;28;20032;-76
2023/10/08 15:30:52;;;;;;;0.32;0.20;;;15.90;99.90;;;;;;5090697;27;20035;-76
2023/10/08 15:33:18;;;;;;;0.38;0.35;;;15.90;99.90;;;;;;5085958;28;20043;-76
2023/10/08 15:35:43;;;;;;;0.00;0.00;;;15.90;99.90;;;;;;5085926;28;20044;-76
2023/10/08 15:38:09;;;;;;;0.10;0.10;;;15.90;99.90;;;;;;5086487;28;20050;-76
2023/10/08 15:40:34;;;;;;;0.10;0.10;;;15.80;99.90;;;;;;5086428;28;20151;-76
2023/10/08 15:43:00;;;;;;;0.20;0.20;;;15.80;99.90;;;;;;5088283;28;20071;-76
2023/10/08 15:45:26;;;;;;;0.10;0.10;;;15.80;99.90;;;;;;5086099;28;20051;-76
2023/10/08 15:47:52;;;;;;;0.05;0.05;;;15.80;99.90;;;;;;5087343;28;20035;-76
2023/10/08 15:50:24;;;;;;;0.20;0.10;;;15.70;99.90;;;;;;5101593;28;20614;-76
2023/10/08 15:52:50;;;;;;;0.10;0.10;;;15.70;99.90;;;;;;5086223;28;20425;-76
2023/10/08 15:55:16;;;;;;;0.20;0.20;;;15.60;99.90;;;;;;5076256;28;20543;-75
2023/10/08 15:57:41;;;;;;;0.40;0.40;;;15.60;99.90;;;;;;5091741;28;20043;-76
2023/10/08 16:00:08;;;;;;;0.13;0.10;;;15.50;99.90;;;;;;5086780;28;20044;-76
2023/10/08 16:02:34;;;;;;;0.20;0.10;;;15.50;99.90;;;;;;5099228;27;20788;-77
2023/10/08 16:04:59;;;;;;;0.03;0.03;;;15.40;99.90;;;;;;5108023;27;20443;-76
2023/10/08 16:07:25;;;;;;;0.10;0.10;;;15.30;99.90;;;;;;5094616;27;20040;-75
2023/10/08 16:09:51;;;;;;;0.10;0.10;;;15.30;99.90;;;;;;5087063;28;20042;-75
2023/10/08 16:12:17;;;;;;;0.10;0.10;;;15.20;99.90;;;;;;5082251;28;20028;-75
2023/10/08 16:14:43;;;;;;;0.03;0.03;;;15.20;99.90;;;;;;5120408;27;20496;-76
2023/10/08 16:17:12;;;;;;;0.00;0.00;;;15.10;99.90;;;;;;5077208;28;20039;-76
2023/10/08 16:19:40;;;;;;;0.10;0.10;;;15.10;99.90;;;;;;5120133;27;20050;-76
2023/10/08 16:22:06;;;;;;;0.00;0.00;;;15.10;99.90;;;;;;5083911;28;20035;-76
2023/10/08 16:24:32;;;;;;;0.00;0.00;;;15.00;99.90;;;;;;5090060;28;20043;-75
2023/10/08 16:26:58;;;;;;;0.15;0.15;;;14.90;99.90;;;;;;5070635;28;20034;-75
2023/10/08 16:29:23;;;;;;;0.10;0.10;;;14.90;99.90;;;;;;5087176;28;20125;-75
2023/10/08 16:31:49;;;;;;;0.10;0.10;;;14.80;99.90;;;;;;5086190;28;20386;-75
2023/10/08 16:34:18;;;;;;;0.10;0.10;;;14.80;99.90;;;;;;5088595;28;20079;-74
2023/10/08 16:36:45;;;;;;;0.93;0.20;;;14.70;99.90;;;;;;5094067;28;20071;-74
2023/10/08 16:39:12;;;;;;;0.20;0.20;;;14.70;99.90;;;;;;5094310;28;20138;-74
2023/10/08 16:41:38;;;;;;;0.10;0.10;;;14.70;99.90;;;;;;5087287;28;20034;-75
2023/10/08 16:44:04;;;;;;;0.10;0.10;;;14.60;99.90;;;;;;5096331;28;20432;-75